createdAt,value
2022-10-18T00:02:01.249Z,9.60
2022-10-18T00:03:04.534Z,12.41
2022-10-18T00:04:07.826Z,9.70
2022-10-18T00:05:18.463Z,10.05
2022-10-18T00:06:21.734Z,10.41
2022-10-18T00:07:26.399Z,10.02
2022-10-18T00:08:29.952Z,10.24
2022-10-18T00:09:33.026Z,10.76
2022-10-18T00:10:36.010Z,7.72
2022-10-18T00:11:39.493Z,7.08
2022-10-18T00:12:42.340Z,9.22
2022-10-18T00:13:45.233Z,7.30
2022-10-18T00:14:48.528Z,8.32
2022-10-18T00:15:51.501Z,9.98
2022-10-18T00:16:54.370Z,7.16
2022-10-18T00:17:57.655Z,6.24
2022-10-18T00:19:05.653Z,8.25
2022-10-18T00:20:08.442Z,10.29
2022-10-18T00:21:12.044Z,5.09
2022-10-18T00:22:14.790Z,5.72
2022-10-18T00:23:18.589Z,6.60
2022-10-18T00:24:21.402Z,5.79
2022-10-18T00:25:24.255Z,6.20
2022-10-18T00:26:27.419Z,7.88
2022-10-18T00:27:30.911Z,7.39
2022-10-18T00:28:36.513Z,7.22
2022-10-18T00:29:39.838Z,7.12
2022-10-18T00:31:51.530Z,9.04
2022-10-18T00:32:54.393Z,7.19
2022-10-18T00:34:04.575Z,8.47
2022-10-18T00:35:07.514Z,5.60
2022-10-18T00:36:10.809Z,6.88
2022-10-18T00:37:13.984Z,9.32
2022-10-18T00:38:41.522Z,9.08
2022-10-18T00:39:44.772Z,10.36
2022-10-18T00:40:47.821Z,8.85
2022-10-18T00:41:51.194Z,9.30
2022-10-18T00:42:54.384Z,8.72
2022-10-18T00:43:57.753Z,8.08
2022-10-18T00:45:00.732Z,9.19
2022-10-18T00:46:03.707Z,9.57
2022-10-18T00:47:07.195Z,8.29
2022-10-18T00:48:10.069Z,8.88
2022-10-18T00:49:13.670Z,8.71
2022-10-18T00:50:17.051Z,12.32
2022-10-18T00:51:20.027Z,7.39
2022-10-18T00:52:22.999Z,7.52
2022-10-18T00:53:25.972Z,7.38
2022-10-18T00:54:29.366Z,5.74
2022-10-18T00:55:32.337Z,4.97
2022-10-18T00:56:35.225Z,4.99
2022-10-18T00:57:38.603Z,5.39
2022-10-18T00:58:41.813Z,6.88
2022-10-18T00:59:45.062Z,4.75
2022-10-18T01:00:48.155Z,4.32
2022-10-18T01:01:51.237Z,5.48
2022-10-18T01:02:54.612Z,6.56
2022-10-18T01:03:57.591Z,4.28
2022-10-18T01:05:01.079Z,7.59
2022-10-18T01:06:03.858Z,7.52
2022-10-18T01:07:07.030Z,3.29
2022-10-18T01:08:10.128Z,4.23
2022-10-18T01:09:13.222Z,5.80
2022-10-18T01:10:16.271Z,4.57
2022-10-18T01:11:19.147Z,6.09
2022-10-18T01:12:22.122Z,5.14
2022-10-18T01:13:25.915Z,5.39
2022-10-18T01:14:29.613Z,6.29
2022-10-18T01:15:32.682Z,5.71
2022-10-18T01:16:35.886Z,4.57
2022-10-18T01:17:39.471Z,6.41
2022-10-18T01:18:42.451Z,5.69
2022-10-18T01:19:45.627Z,6.11
2022-10-18T01:20:49.528Z,5.95
2022-10-18T01:21:52.806Z,5.58
2022-10-18T01:22:56.021Z,4.31
2022-10-18T01:23:58.966Z,4.29
2022-10-18T01:26:06.879Z,4.86
2022-10-18T01:27:10.154Z,4.82
2022-10-18T01:28:13.326Z,6.51
2022-10-18T01:29:16.508Z,5.36
2022-10-18T01:30:19.593Z,6.50
2022-10-18T01:31:22.471Z,5.28
2022-10-18T01:32:26.683Z,5.64
2022-10-18T01:33:29.655Z,7.02
2022-10-18T01:34:32.632Z,5.38
2022-10-18T01:35:35.501Z,6.74
2022-10-18T01:36:38.993Z,7.52
2022-10-18T01:37:42.173Z,5.88
2022-10-18T01:38:45.664Z,6.21
2022-10-18T01:39:48.965Z,6.87
2022-10-18T01:40:52.134Z,6.76
2022-10-18T01:41:55.403Z,8.68
2022-10-18T01:42:58.678Z,8.03
2022-10-18T01:44:01.972Z,5.24
2022-10-18T01:45:05.484Z,8.63
2022-10-18T01:46:08.648Z,8.34
2022-10-18T01:47:12.058Z,7.69
2022-10-18T01:48:15.228Z,7.67
2022-10-18T01:49:18.298Z,6.95
2022-10-18T01:50:21.486Z,8.66
2022-10-18T01:51:24.360Z,8.73
2022-10-18T01:52:27.498Z,8.87
2022-10-18T01:53:31.326Z,8.72
2022-10-18T01:54:34.303Z,8.17
2022-10-18T01:55:37.903Z,9.62
2022-10-18T01:56:41.289Z,7.85
2022-10-18T01:57:44.664Z,7.99
2022-10-18T01:58:47.862Z,8.26
2022-10-18T01:59:51.458Z,11.61
2022-10-18T02:00:54.940Z,9.53
2022-10-18T02:01:59.955Z,7.05
2022-10-18T02:03:03.047Z,8.23
2022-10-18T02:04:06.122Z,7.42
2022-10-18T02:05:09.493Z,7.59
2022-10-18T02:06:12.693Z,8.14
2022-10-18T02:07:16.173Z,7.72
2022-10-18T02:08:24.110Z,10.68
2022-10-18T02:09:25.103Z,8.54
2022-10-18T02:10:28.788Z,11.83
2022-10-18T02:11:31.670Z,11.07
2022-10-18T02:12:34.851Z,9.55
2022-10-18T02:13:38.645Z,7.87
2022-10-18T02:14:41.734Z,7.76
2022-10-18T02:15:45.225Z,8.56
2022-10-18T02:16:48.926Z,8.00
2022-10-18T02:17:52.100Z,8.48
2022-10-18T02:18:55.680Z,9.18
2022-10-18T02:19:59.175Z,8.81
2022-10-18T02:21:03.178Z,10.38
2022-10-18T02:22:06.359Z,9.02
2022-10-18T02:23:09.955Z,8.70
2022-10-18T02:24:13.227Z,9.43
2022-10-18T02:25:16.413Z,7.08
2022-10-18T02:26:19.790Z,8.92
2022-10-18T02:27:22.884Z,10.29
2022-10-18T02:28:30.778Z,10.64
2022-10-18T02:29:33.641Z,10.48
2022-10-18T02:30:36.724Z,11.48
2022-10-18T02:31:39.690Z,10.01
2022-10-18T02:32:43.191Z,8.73
2022-10-18T02:33:46.274Z,9.52
2022-10-18T02:34:49.556Z,9.06
2022-10-18T02:35:52.648Z,11.19
2022-10-18T02:37:00.895Z,10.09
2022-10-18T02:38:04.051Z,9.71
2022-10-18T02:39:07.192Z,8.86
2022-10-18T02:40:12.267Z,9.91
2022-10-18T02:41:16.345Z,10.40
2022-10-18T02:42:28.219Z,11.41
2022-10-18T02:43:31.097Z,9.33
2022-10-18T02:44:34.062Z,7.68
2022-10-18T02:45:39.943Z,10.30
2022-10-18T02:46:43.394Z,9.91
2022-10-18T02:49:08.168Z,10.55
2022-10-18T02:50:11.265Z,8.57
2022-10-18T02:51:14.353Z,8.35
2022-10-18T02:52:17.938Z,9.58
2022-10-18T02:53:21.023Z,10.00
2022-10-18T02:54:24.104Z,8.85
2022-10-18T02:56:34.355Z,12.52
2022-10-18T02:57:47.792Z,13.99
2022-10-18T02:58:53.731Z,9.75
2022-10-18T02:59:57.414Z,10.69
2022-10-18T03:01:00.695Z,10.09
2022-10-18T03:02:06.135Z,8.75
2022-10-18T03:03:15.384Z,11.07
2022-10-18T03:04:21.660Z,11.11
2022-10-18T03:05:24.890Z,10.86
2022-10-18T03:06:35.137Z,14.51
2022-10-18T03:07:39.147Z,12.66
2022-10-18T03:08:42.431Z,9.07
2022-10-18T03:09:45.974Z,13.65
2022-10-18T03:10:49.613Z,10.60
2022-10-18T03:11:55.146Z,9.15
2022-10-18T03:12:58.231Z,11.97
2022-10-18T03:14:01.512Z,11.06
2022-10-18T03:15:07.669Z,11.50
2022-10-18T03:16:11.062Z,10.91
2022-10-18T03:17:14.992Z,10.53
2022-10-18T03:18:18.438Z,11.12
2022-10-18T03:19:21.539Z,9.05
2022-10-18T03:20:24.905Z,8.99
2022-10-18T03:21:27.581Z,10.81
2022-10-18T03:22:30.660Z,12.59
2022-10-18T03:23:36.465Z,11.52
2022-10-18T03:24:51.828Z,8.85
2022-10-18T03:25:54.937Z,8.86
2022-10-18T03:26:58.147Z,9.40
2022-10-18T03:28:01.106Z,9.68
2022-10-18T03:29:04.758Z,8.96
2022-10-18T03:30:07.893Z,11.02
2022-10-18T03:31:10.860Z,11.12
2022-10-18T03:32:13.833Z,10.47
2022-10-18T03:33:16.807Z,11.04
2022-10-18T03:34:37.815Z,12.80
2022-10-18T03:35:40.986Z,11.35
2022-10-18T03:36:43.859Z,10.63
2022-10-18T03:37:47.045Z,12.31
2022-10-18T03:38:51.760Z,14.30
2022-10-18T03:39:55.259Z,13.60
2022-10-18T03:40:58.020Z,13.06
2022-10-18T03:42:01.714Z,10.26
2022-10-18T03:43:05.214Z,13.96
2022-10-18T03:44:08.294Z,13.99
2022-10-18T03:45:11.381Z,14.46
2022-10-18T03:46:14.350Z,17.74
2022-10-18T03:47:17.323Z,14.16
2022-10-18T03:48:20.396Z,10.68
2022-10-18T03:49:23.444Z,14.19
2022-10-18T03:50:26.171Z,13.26
2022-10-18T03:51:37.422Z,13.40
2022-10-18T03:52:40.709Z,15.48
2022-10-18T03:53:43.995Z,15.40
2022-10-18T03:54:46.964Z,12.51
2022-10-18T03:55:49.847Z,12.15
2022-10-18T03:56:52.827Z,11.99
2022-10-18T03:57:55.898Z,15.02
2022-10-18T03:58:59.083Z,13.73
2022-10-18T04:00:02.157Z,12.65
2022-10-18T04:01:05.246Z,16.61
2022-10-18T04:02:08.629Z,13.11
2022-10-18T04:03:11.508Z,13.04
2022-10-18T04:04:14.698Z,14.98
2022-10-18T04:05:17.557Z,13.28
2022-10-18T04:06:20.640Z,13.34
2022-10-18T04:07:23.809Z,13.77
2022-10-18T04:08:27.311Z,15.08
2022-10-18T04:09:30.392Z,12.08
2022-10-18T04:10:33.469Z,12.61
2022-10-18T04:11:37.621Z,14.18
2022-10-18T04:12:40.555Z,11.93
2022-10-18T04:13:43.332Z,11.12
2022-10-18T04:14:46.504Z,9.62
2022-10-18T04:15:49.484Z,14.47
2022-10-18T04:16:52.146Z,14.64
2022-10-18T04:17:55.228Z,11.52
2022-10-18T04:18:58.009Z,13.20
2022-10-18T04:20:01.090Z,13.53
2022-10-18T04:21:04.163Z,10.72
2022-10-18T04:22:07.343Z,11.31
2022-10-18T04:23:10.621Z,9.38
2022-10-18T04:24:13.498Z,13.92
2022-10-18T04:25:16.480Z,10.52
2022-10-18T04:26:19.380Z,11.82
2022-10-18T04:27:22.341Z,11.94
2022-10-18T04:28:25.130Z,10.36
2022-10-18T04:29:27.975Z,8.94
2022-10-18T04:30:30.953Z,11.12
2022-10-18T04:31:33.926Z,11.16
2022-10-18T04:32:37.119Z,14.35
2022-10-18T04:33:40.092Z,11.26
2022-10-18T04:35:46.359Z,10.46
2022-10-18T04:36:49.534Z,11.30
2022-10-18T04:37:52.817Z,14.16
2022-10-18T04:38:56.307Z,11.32
2022-10-18T04:39:59.543Z,12.56
2022-10-18T04:41:03.183Z,11.87
2022-10-18T04:42:06.672Z,11.43
2022-10-18T04:43:09.747Z,9.05
2022-10-18T04:44:13.040Z,13.02
2022-10-18T04:45:16.015Z,12.65
2022-10-18T04:46:19.098Z,10.58
2022-10-18T04:47:22.171Z,13.07
2022-10-18T04:48:26.065Z,13.76
2022-10-18T04:49:28.953Z,13.09
2022-10-18T04:50:33.877Z,13.62
2022-10-18T04:51:36.715Z,11.44
2022-10-18T04:52:39.698Z,11.26
2022-10-18T04:53:43.215Z,12.27
2022-10-18T04:54:46.414Z,12.99
2022-10-18T04:55:50.392Z,11.55
2022-10-18T04:56:53.584Z,13.19
2022-10-18T04:57:56.963Z,13.93
2022-10-18T04:59:00.343Z,11.73
2022-10-18T05:00:03.461Z,12.27
2022-10-18T05:01:06.390Z,12.34
2022-10-18T05:02:09.525Z,10.41
2022-10-18T05:03:14.834Z,11.54
2022-10-18T05:04:18.101Z,10.49
2022-10-18T05:05:27.017Z,9.49
2022-10-18T05:06:29.277Z,11.12
2022-10-18T05:07:32.689Z,13.26
2022-10-18T05:08:35.953Z,9.72
2022-10-18T05:09:39.029Z,10.56
2022-10-18T05:10:42.191Z,9.48
2022-10-18T05:11:45.389Z,9.94
2022-10-18T05:12:48.782Z,8.42
2022-10-18T05:13:52.775Z,10.62
2022-10-18T05:14:56.819Z,10.71
2022-10-18T05:16:00.331Z,10.86
2022-10-18T05:17:03.341Z,10.12
2022-10-18T05:18:06.230Z,7.59
2022-10-18T05:19:09.410Z,9.88
2022-10-18T05:20:15.829Z,11.21
2022-10-18T05:21:17.305Z,12.19
2022-10-18T05:22:20.283Z,10.72
2022-10-18T05:23:23.254Z,10.93
2022-10-18T05:24:27.734Z,10.70
2022-10-18T05:25:30.955Z,12.63
2022-10-18T05:26:33.931Z,12.55
2022-10-18T05:27:37.123Z,12.79
2022-10-18T05:28:41.159Z,11.45
2022-10-18T05:29:44.407Z,9.75
2022-10-18T05:30:47.526Z,9.91
2022-10-18T05:31:50.759Z,14.84
2022-10-18T05:32:53.836Z,14.08
2022-10-18T05:33:57.126Z,12.25
2022-10-18T05:34:59.992Z,11.76
2022-10-18T05:36:04.220Z,13.96
2022-10-18T05:37:10.454Z,10.45
2022-10-18T05:38:13.448Z,12.91
2022-10-18T05:39:16.310Z,12.45
2022-10-18T05:40:19.296Z,13.11
2022-10-18T05:41:22.473Z,10.09
2022-10-18T05:42:25.952Z,11.68
2022-10-18T05:43:28.942Z,8.19
2022-10-18T05:44:32.629Z,12.50
2022-10-18T05:45:35.503Z,11.32
2022-10-18T05:46:38.482Z,13.64
2022-10-18T05:47:41.152Z,12.45
2022-10-18T05:48:44.432Z,14.06
2022-10-18T05:49:48.331Z,12.55
2022-10-18T05:50:51.416Z,11.69
2022-10-18T05:51:55.107Z,17.01
2022-10-18T05:53:06.929Z,12.73
2022-10-18T05:54:03.103Z,11.56
2022-10-18T05:55:06.007Z,13.18
2022-10-18T05:56:08.772Z,13.80
2022-10-18T05:57:11.841Z,13.79
2022-10-18T05:58:15.228Z,16.41
2022-10-18T05:59:18.190Z,12.69
2022-10-18T06:00:21.612Z,14.38
2022-10-18T06:01:24.957Z,13.94
2022-10-18T06:02:28.382Z,11.50
2022-10-18T06:03:31.454Z,13.14
2022-10-18T06:04:34.501Z,11.94
2022-10-18T06:06:40.687Z,13.62
2022-10-18T06:07:44.417Z,12.15
2022-10-18T06:08:47.455Z,11.88
2022-10-18T06:09:50.214Z,10.92
2022-10-18T06:10:53.512Z,10.11
2022-10-18T06:11:56.586Z,11.59
2022-10-18T06:13:00.184Z,15.25
2022-10-18T06:14:03.476Z,11.83
2022-10-18T06:15:06.756Z,13.94
2022-10-18T06:16:09.615Z,12.76
2022-10-18T06:17:13.422Z,13.05
2022-10-18T06:18:16.908Z,9.50
2022-10-18T06:19:19.804Z,11.94
2022-10-18T06:20:24.196Z,11.90
2022-10-18T06:21:27.270Z,11.38
2022-10-18T06:22:30.355Z,11.94
2022-10-18T06:23:33.534Z,14.32
2022-10-18T06:24:36.697Z,10.70
2022-10-18T06:25:39.899Z,12.83
2022-10-18T06:26:42.684Z,9.30
2022-10-18T06:27:45.750Z,11.13
2022-10-18T06:28:48.667Z,12.11
2022-10-18T06:29:52.218Z,11.68
2022-10-18T06:30:54.879Z,12.55
2022-10-18T06:31:57.868Z,11.28
2022-10-18T06:33:00.917Z,9.65
2022-10-18T06:34:03.821Z,11.85
2022-10-18T06:35:07.570Z,11.62
2022-10-18T06:36:10.793Z,12.75
2022-10-18T06:37:14.076Z,10.31
2022-10-18T06:38:16.748Z,10.34
2022-10-18T06:39:20.328Z,15.41
2022-10-18T06:40:24.075Z,11.91
2022-10-18T06:41:29.309Z,10.92
2022-10-18T06:42:33.368Z,11.38
2022-10-18T06:43:36.951Z,12.85
2022-10-18T06:44:39.891Z,15.66
2022-10-18T06:45:43.367Z,12.58
2022-10-18T06:46:47.129Z,16.69
2022-10-18T06:47:49.996Z,11.56
2022-10-18T06:48:52.771Z,11.60
2022-10-18T06:49:56.144Z,11.72
2022-10-18T06:50:58.980Z,11.51
2022-10-18T06:52:02.518Z,12.87
2022-10-18T06:53:05.151Z,11.59
2022-10-18T06:54:17.262Z,11.53
2022-10-18T06:55:13.618Z,12.19
2022-10-18T06:56:16.773Z,10.98
2022-10-18T06:57:19.856Z,10.49
2022-10-18T06:58:22.942Z,12.49
2022-10-18T06:59:28.973Z,10.25
2022-10-18T07:00:31.442Z,14.09
2022-10-18T07:01:34.594Z,11.73
2022-10-18T07:02:37.408Z,10.35
2022-10-18T07:03:40.898Z,11.87
2022-10-18T07:04:44.405Z,13.68
2022-10-18T07:05:47.348Z,12.58
2022-10-18T07:06:50.641Z,9.35
2022-10-18T07:07:56.402Z,12.79
2022-10-18T07:08:58.738Z,13.46
2022-10-18T07:10:01.620Z,10.01
2022-10-18T07:11:05.325Z,10.33
2022-10-18T07:12:08.291Z,12.82
2022-10-18T07:13:31.605Z,10.62
2022-10-18T07:14:16.824Z,11.41
2022-10-18T07:15:19.562Z,12.15
2022-10-18T07:16:22.774Z,13.18
2022-10-18T07:17:29.187Z,10.44
2022-10-18T07:18:30.569Z,14.09
2022-10-18T07:19:33.431Z,13.10
2022-10-18T07:20:36.210Z,12.82
2022-10-18T07:21:39.779Z,12.02
2022-10-18T07:22:42.562Z,10.31
2022-10-18T07:23:45.544Z,11.75
2022-10-18T07:24:48.413Z,12.93
2022-10-18T07:25:52.023Z,10.71
2022-10-18T07:26:55.505Z,12.66
2022-10-18T07:27:58.781Z,11.42
2022-10-18T07:29:01.981Z,12.85
2022-10-18T07:30:05.353Z,10.52
2022-10-18T07:31:08.143Z,11.46
2022-10-18T07:32:10.891Z,12.42
2022-10-18T07:33:13.581Z,10.24
2022-10-18T07:34:16.332Z,15.87
2022-10-18T07:35:19.635Z,12.12
2022-10-18T07:36:23.231Z,12.01
2022-10-18T07:37:27.959Z,11.39
2022-10-18T07:38:31.124Z,14.30
2022-10-18T07:39:34.040Z,12.26
2022-10-18T07:40:36.866Z,13.75
2022-10-18T07:41:39.784Z,13.93
2022-10-18T07:42:43.133Z,13.24
2022-10-18T07:43:47.342Z,13.04
2022-10-18T07:44:51.047Z,10.41
2022-10-18T07:45:53.592Z,11.30
2022-10-18T07:46:57.016Z,13.75
2022-10-18T07:48:00.258Z,13.62
2022-10-18T07:49:03.268Z,10.97
2022-10-18T07:50:06.226Z,12.48
2022-10-18T07:51:09.706Z,16.10
2022-10-18T07:52:13.093Z,12.55
2022-10-18T07:53:16.211Z,15.88
2022-10-18T07:54:19.972Z,11.95
2022-10-18T07:55:23.464Z,10.08
2022-10-18T07:56:27.155Z,11.93
2022-10-18T07:57:30.323Z,11.35
2022-10-18T07:58:33.611Z,15.24
2022-10-18T07:59:37.315Z,12.35
2022-10-18T08:00:40.292Z,14.61
2022-10-18T08:01:43.228Z,12.71
2022-10-18T08:02:46.353Z,13.83
2022-10-18T08:03:49.635Z,12.03
2022-10-18T08:04:52.741Z,14.22
2022-10-18T08:05:55.383Z,10.51
2022-10-18T08:06:58.267Z,14.22
2022-10-18T08:08:04.339Z,14.15
2022-10-18T08:09:06.755Z,15.61
2022-10-18T08:10:09.748Z,13.49
2022-10-18T08:11:12.513Z,13.61
2022-10-18T08:12:16.219Z,11.03
2022-10-18T08:13:19.192Z,12.61
2022-10-18T08:14:22.526Z,15.00
2022-10-18T08:15:25.148Z,10.59
2022-10-18T08:16:28.300Z,13.56
2022-10-18T08:17:31.579Z,15.25
2022-10-18T08:18:34.806Z,12.12
2022-10-18T08:19:37.902Z,10.92
2022-10-18T08:20:40.841Z,12.17
2022-10-18T08:21:43.921Z,14.94
2022-10-18T08:22:48.349Z,11.91
2022-10-18T08:23:51.208Z,11.36
2022-10-18T08:24:54.415Z,11.32
2022-10-18T08:25:57.988Z,11.33
2022-10-18T08:27:01.059Z,13.60
2022-10-18T08:28:04.654Z,15.02
2022-10-18T08:29:22.968Z,12.90
2022-10-18T08:30:12.673Z,12.59
2022-10-18T08:31:15.862Z,14.81
2022-10-18T08:32:19.334Z,13.62
2022-10-18T08:33:22.540Z,13.99
2022-10-18T08:34:25.552Z,14.15
2022-10-18T08:35:30.300Z,14.75
2022-10-18T08:36:33.385Z,15.83
2022-10-18T08:37:36.384Z,17.52
2022-10-18T08:38:39.142Z,13.09
2022-10-18T08:39:42.111Z,12.16
2022-10-18T08:40:45.505Z,11.12
2022-10-18T08:41:48.783Z,14.93
2022-10-18T08:42:51.564Z,16.27
2022-10-18T08:43:55.451Z,14.41
2022-10-18T08:44:58.951Z,16.91
2022-10-18T08:46:03.453Z,15.11
2022-10-18T08:47:06.429Z,12.45
2022-10-18T08:48:09.712Z,15.71
2022-10-18T08:49:13.113Z,15.18
2022-10-18T08:50:16.221Z,16.35
2022-10-18T08:51:19.696Z,16.19
2022-10-18T08:52:22.439Z,13.14
2022-10-18T08:53:25.221Z,13.78
2022-10-18T08:54:28.413Z,18.56
2022-10-18T08:55:31.369Z,17.38
2022-10-18T08:56:34.768Z,13.25
2022-10-18T08:57:37.546Z,15.17
2022-10-18T08:58:40.730Z,13.22
2022-10-18T08:59:43.497Z,14.20
2022-10-18T09:00:46.432Z,15.31
2022-10-18T09:01:49.929Z,15.43
2022-10-18T09:02:52.972Z,15.68
2022-10-18T09:03:56.021Z,17.45
2022-10-18T09:04:58.790Z,14.79
2022-10-18T09:06:01.986Z,14.26
2022-10-18T09:07:05.568Z,15.39
2022-10-18T09:08:08.582Z,13.11
2022-10-18T09:09:12.144Z,13.50
2022-10-18T09:10:15.001Z,15.04
2022-10-18T09:11:19.001Z,14.73
2022-10-18T09:12:22.495Z,17.28
2022-10-18T09:13:25.585Z,13.22
2022-10-18T09:14:28.752Z,16.54
2022-10-18T09:15:31.632Z,16.37
2022-10-18T09:16:34.806Z,19.60
2022-10-18T09:17:37.780Z,19.08
2022-10-18T09:18:40.966Z,18.56
2022-10-18T09:19:44.061Z,14.75
2022-10-18T09:20:46.829Z,16.10
2022-10-18T09:21:50.596Z,18.24
2022-10-18T09:22:54.091Z,15.61
2022-10-18T09:23:57.878Z,19.24
2022-10-18T09:25:01.801Z,19.62
2022-10-18T09:26:05.379Z,18.46
2022-10-18T09:27:08.869Z,17.02
2022-10-18T09:28:12.460Z,21.42
2022-10-18T09:29:16.091Z,19.42
2022-10-18T09:30:19.855Z,17.37
2022-10-18T09:31:23.336Z,18.82
2022-10-18T09:32:26.928Z,20.69
2022-10-18T09:33:30.740Z,20.28
2022-10-18T09:34:34.014Z,21.82
2022-10-18T09:35:37.495Z,19.39
2022-10-18T09:36:40.986Z,18.02
2022-10-18T09:37:44.579Z,19.00
2022-10-18T09:38:48.267Z,17.59
2022-10-18T09:39:52.089Z,19.04
2022-10-18T09:40:55.660Z,18.84
2022-10-18T09:41:59.240Z,23.99
2022-10-18T09:43:03.256Z,20.77
2022-10-18T09:44:07.471Z,15.72
2022-10-18T09:45:11.254Z,20.19
2022-10-18T09:46:14.630Z,22.16
2022-10-18T09:47:20.217Z,19.74
2022-10-18T09:48:23.864Z,19.38
2022-10-18T09:49:27.357Z,19.57
2022-10-18T09:50:30.955Z,17.09
2022-10-18T09:51:34.544Z,19.59
2022-10-18T09:52:37.760Z,17.61
2022-10-18T09:53:41.443Z,20.59
2022-10-18T09:54:45.117Z,18.66
2022-10-18T09:55:48.298Z,23.13
2022-10-18T09:56:51.842Z,22.71
2022-10-18T09:57:55.337Z,16.05
2022-10-18T09:58:58.560Z,20.44
2022-10-18T10:00:03.068Z,20.66
2022-10-18T10:01:06.669Z,18.94
2022-10-18T10:02:10.307Z,15.60
2022-10-18T10:03:13.942Z,21.64
2022-10-18T10:04:17.433Z,20.23
2022-10-18T10:05:21.334Z,16.58
2022-10-18T10:06:24.932Z,19.55
2022-10-18T10:07:31.125Z,21.36
2022-10-18T10:08:33.533Z,21.77
2022-10-18T10:09:37.130Z,22.05
2022-10-18T10:10:40.930Z,20.48
2022-10-18T10:11:44.625Z,22.00
2022-10-18T10:12:48.451Z,17.87
2022-10-18T10:13:51.920Z,20.39
2022-10-18T10:14:55.193Z,27.28
2022-10-18T10:15:59.094Z,19.26
2022-10-18T10:17:02.909Z,18.64
2022-10-18T10:18:07.405Z,22.11
2022-10-18T10:19:11.214Z,23.26
2022-10-18T10:20:15.317Z,25.08
2022-10-18T10:21:19.611Z,18.91
2022-10-18T10:22:23.203Z,19.90
2022-10-18T10:23:26.896Z,24.43
2022-10-18T10:24:31.328Z,19.16
2022-10-18T10:25:34.899Z,20.55
2022-10-18T10:26:38.491Z,20.95
2022-10-18T10:27:42.083Z,20.11
2022-10-18T10:28:45.389Z,24.14
2022-10-18T10:29:48.552Z,22.63
2022-10-18T10:30:52.235Z,19.25
2022-10-18T10:31:56.229Z,17.91
2022-10-18T10:32:59.742Z,20.40
2022-10-18T10:34:03.219Z,18.98
2022-10-18T10:35:10.051Z,19.36
2022-10-18T10:36:12.492Z,22.94
2022-10-18T10:37:17.264Z,23.68
2022-10-18T10:38:21.162Z,21.01
2022-10-18T10:39:24.683Z,15.24
2022-10-18T10:40:29.125Z,17.99
2022-10-18T10:42:35.333Z,23.63
2022-10-18T10:43:40.362Z,21.37
2022-10-18T10:44:43.945Z,22.09
2022-10-18T10:45:47.545Z,25.70
2022-10-18T10:46:51.452Z,22.12
2022-10-18T10:47:55.035Z,27.68
2022-10-18T10:49:21.076Z,23.31
2022-10-18T10:50:04.574Z,19.49
2022-10-18T10:51:08.055Z,20.34
2022-10-18T10:52:26.326Z,16.75
2022-10-18T10:53:15.949Z,18.65
2022-10-18T10:54:19.447Z,18.41
2022-10-18T10:55:34.789Z,13.52
2022-10-18T10:56:28.667Z,20.69
2022-10-18T10:57:32.472Z,22.75
2022-10-18T10:58:37.111Z,21.86
2022-10-18T11:00:45.634Z,17.29
2022-10-18T11:01:49.100Z,20.31
2022-10-18T11:03:00.659Z,17.59
2022-10-18T11:03:57.761Z,17.88
2022-10-18T11:05:00.887Z,19.71
2022-10-18T11:06:04.793Z,21.05
2022-10-18T11:07:08.774Z,23.04
2022-10-18T11:08:11.860Z,21.45
2022-10-18T11:09:15.454Z,24.77
2022-10-18T11:10:18.333Z,23.39
2022-10-18T11:11:23.181Z,22.61
2022-10-18T11:12:26.529Z,21.01
2022-10-18T11:13:30.122Z,23.30
2022-10-18T11:14:33.621Z,21.32
2022-10-18T11:15:37.514Z,25.13
2022-10-18T11:16:41.002Z,22.64
2022-10-18T11:17:44.440Z,20.99
2022-10-18T11:18:48.175Z,20.48
2022-10-18T11:19:51.674Z,19.24
2022-10-18T11:20:55.364Z,24.09
2022-10-18T11:21:58.645Z,21.14
2022-10-18T11:23:02.344Z,24.36
2022-10-18T11:24:06.006Z,19.51
2022-10-18T11:25:09.635Z,27.32
2022-10-18T11:26:13.224Z,24.64
2022-10-18T11:27:16.511Z,34.09
2022-10-18T11:28:19.996Z,20.76
2022-10-18T11:29:23.379Z,20.27
2022-10-18T11:30:27.694Z,20.15
2022-10-18T11:31:31.181Z,22.11
2022-10-18T11:32:35.385Z,24.98
2022-10-18T11:34:07.209Z,22.55
2022-10-18T11:34:43.178Z,21.16
2022-10-18T11:35:47.381Z,22.59
2022-10-18T11:36:56.154Z,21.97
2022-10-18T11:37:56.211Z,21.63
2022-10-18T11:38:59.902Z,19.60
2022-10-18T11:40:05.134Z,21.98
2022-10-18T11:41:09.155Z,20.34
2022-10-18T11:42:12.725Z,21.08
2022-10-18T11:43:16.274Z,16.25
2022-10-18T11:44:19.295Z,14.00
2022-10-18T11:45:23.463Z,15.04
2022-10-18T11:46:26.880Z,21.57
2022-10-18T11:47:30.499Z,18.69
2022-10-18T11:48:34.787Z,18.02
2022-10-18T11:49:38.498Z,16.94
2022-10-18T11:50:42.578Z,20.90
2022-10-18T11:52:03.562Z,23.52
2022-10-18T11:52:50.605Z,22.26
2022-10-18T11:53:55.204Z,21.05
2022-10-18T11:54:58.216Z,21.18
2022-10-18T11:56:01.674Z,21.63
2022-10-18T11:57:05.769Z,24.45
2022-10-18T11:58:09.263Z,20.68
2022-10-18T11:59:12.753Z,17.54
2022-10-18T12:00:16.425Z,19.73
2022-10-18T12:01:22.436Z,18.59
2022-10-18T12:02:25.417Z,17.60
2022-10-18T12:03:28.448Z,16.22
2022-10-18T12:04:32.138Z,16.70
2022-10-18T12:05:36.250Z,18.93
2022-10-18T12:06:39.933Z,19.61
2022-10-18T12:07:43.637Z,21.91
2022-10-18T12:08:46.934Z,19.57
2022-10-18T12:09:51.221Z,17.35
2022-10-18T12:11:09.981Z,18.97
2022-10-18T12:12:00.554Z,18.16
2022-10-18T12:13:04.241Z,18.94
2022-10-18T12:14:07.846Z,19.64
2022-10-18T12:15:11.750Z,16.06
2022-10-18T12:16:14.916Z,17.55
2022-10-18T12:17:41.761Z,17.83
2022-10-18T12:18:24.351Z,19.45
2022-10-18T12:19:27.657Z,16.54
2022-10-18T12:20:31.750Z,19.01
2022-10-18T12:21:35.031Z,17.73
2022-10-18T12:22:40.667Z,17.16
2022-10-18T12:23:43.753Z,16.06
2022-10-18T12:24:47.242Z,14.84
2022-10-18T12:25:51.034Z,15.75
2022-10-18T12:26:55.236Z,15.36
2022-10-18T12:27:58.370Z,18.04
2022-10-18T12:29:02.493Z,20.25
2022-10-18T12:30:06.824Z,18.05
2022-10-18T12:31:11.040Z,17.26
2022-10-18T12:32:14.220Z,16.30
2022-10-18T12:33:33.205Z,19.15
2022-10-18T12:34:22.834Z,19.44
2022-10-18T12:35:26.126Z,15.25
2022-10-18T12:36:30.024Z,19.46
2022-10-18T12:37:33.918Z,15.28
2022-10-18T12:38:37.608Z,15.74
2022-10-18T12:39:43.610Z,14.62
2022-10-18T12:40:46.643Z,15.57
2022-10-18T12:41:50.445Z,15.79
2022-10-18T12:42:53.820Z,18.67
2022-10-18T12:43:58.145Z,13.84
2022-10-18T12:45:02.579Z,12.42
2022-10-18T12:46:10.702Z,13.73
2022-10-18T12:47:11.680Z,18.05
2022-10-18T12:48:14.949Z,20.45
2022-10-18T12:49:18.234Z,15.61
2022-10-18T12:50:22.541Z,13.49
2022-10-18T12:51:25.836Z,16.91
2022-10-18T12:52:29.946Z,20.03
2022-10-18T12:53:33.008Z,19.29
2022-10-18T12:54:37.013Z,18.22
2022-10-18T12:56:45.217Z,17.79
2022-10-18T12:57:49.533Z,15.14
2022-10-18T12:58:52.925Z,15.65
2022-10-18T12:59:56.090Z,16.68
2022-10-18T13:01:00.099Z,14.14
2022-10-18T13:02:03.683Z,13.13
2022-10-18T13:03:06.972Z,12.28
2022-10-18T13:04:10.106Z,15.29
2022-10-18T13:05:26.948Z,17.99
2022-10-18T13:06:19.491Z,16.14
2022-10-18T13:07:23.025Z,14.46
2022-10-18T13:08:26.569Z,17.05
2022-10-18T13:09:29.861Z,15.20
2022-10-18T13:10:33.024Z,17.66
2022-10-18T13:11:36.925Z,22.37
2022-10-18T13:12:40.844Z,16.66
2022-10-18T13:13:43.623Z,19.31
2022-10-18T13:14:59.195Z,14.81
2022-10-18T13:15:53.547Z,15.47
2022-10-18T13:16:57.199Z,17.09
2022-10-18T13:18:00.844Z,18.53
2022-10-18T13:19:04.230Z,16.58
2022-10-18T13:20:25.182Z,17.69
2022-10-18T13:21:13.143Z,16.29
2022-10-18T13:22:16.749Z,19.37
2022-10-18T13:23:20.436Z,17.01
2022-10-18T13:24:24.037Z,16.18
2022-10-18T13:25:27.508Z,17.67
2022-10-18T13:26:31.003Z,20.62
2022-10-18T13:27:36.256Z,18.64
2022-10-18T13:28:39.053Z,24.37
2022-10-18T13:29:43.613Z,22.45
2022-10-18T13:30:47.412Z,22.50
2022-10-18T13:31:51.332Z,25.44
2022-10-18T13:32:54.291Z,22.80
2022-10-18T13:33:57.892Z,18.83
2022-10-18T13:35:02.088Z,24.44
2022-10-18T13:36:05.374Z,26.01
2022-10-18T13:37:08.663Z,21.84
2022-10-18T13:38:12.142Z,18.18
2022-10-18T13:39:16.253Z,19.91
2022-10-18T13:40:20.875Z,23.21
2022-10-18T13:42:28.254Z,21.74
2022-10-18T13:43:31.233Z,20.54
2022-10-18T13:44:34.232Z,21.62
2022-10-18T13:45:37.906Z,18.99
2022-10-18T13:46:41.594Z,22.45
2022-10-18T13:47:45.805Z,21.48
2022-10-18T13:48:50.312Z,21.69
2022-10-18T13:49:58.516Z,17.66
2022-10-18T13:50:58.121Z,20.94
2022-10-18T13:52:02.419Z,22.42
2022-10-18T13:53:05.708Z,20.19
2022-10-18T13:54:08.773Z,21.39
2022-10-18T13:55:12.791Z,18.02
2022-10-18T13:56:16.264Z,18.11
2022-10-18T13:57:23.048Z,19.67